Time;durP1;ratioP1;P1;durP2;ratioP2;P2;SDS_P1;SDS_P2;PMS_P1;PMS_P2;Temp;Humidity;BMP_temperature;BMP_pressure;BME280_temperature;BME280_humidity;BME280_pressure;Samples;Min_cycle;Max_cycle;Signal;HPM_P1;HPM_P2
2021/07/23 00:00:01;;;;;;;9.23;8.30;;;21.20;60.20;;;;;;5076381;28;20448;-75
2021/07/23 00:02:28;;;;;;;9.33;8.30;;;21.20;60.30;;;;;;5076255;28;20464;-75
2021/07/23 00:04:54;;;;;;;10.63;9.53;;;21.10;60.30;;;;;;5076189;28;20487;-75
2021/07/23 00:07:21;;;;;;;11.00;8.00;;;21.10;60.40;;;;;;5076300;28;20447;-75
2021/07/23 00:09:48;;;;;;;9.90;8.90;;;21.10;60.60;;;;;;5076363;28;20451;-75
2021/07/23 00:12:16;;;;;;;10.80;8.83;;;21.00;60.50;;;;;;5076263;28;20465;-75
2021/07/23 00:14:42;;;;;;;9.50;8.40;;;21.00;60.70;;;;;;5076161;28;20433;-75
2021/07/23 00:17:09;;;;;;;9.90;8.90;;;21.00;60.80;;;;;;5075865;28;20935;-75
2021/07/23 00:19:36;;;;;;;12.33;8.13;;;20.90;60.90;;;;;;5076022;28;20449;-75
2021/07/23 00:22:03;;;;;;;9.00;8.10;;;20.90;61.00;;;;;;5075672;28;20480;-75
2021/07/23 00:24:29;;;;;;;8.27;7.47;;;20.90;61.20;;;;;;5075589;28;20476;-75
2021/07/23 00:26:56;;;;;;;8.57;7.87;;;20.80;61.20;;;;;;5075917;28;20440;-75
2021/07/23 00:29:24;;;;;;;9.20;8.30;;;20.80;61.20;;;;;;5075588;28;20939;-75
2021/07/23 00:31:51;;;;;;;8.70;7.77;;;20.80;61.50;;;;;;5075791;28;20464;-75
2021/07/23 00:34:17;;;;;;;9.10;8.20;;;20.70;61.60;;;;;;5075810;28;20490;-75
2021/07/23 00:36:44;;;;;;;8.97;8.20;;;20.70;61.60;;;;;;5075729;28;20472;-75
2021/07/23 00:39:11;;;;;;;8.83;8.03;;;20.70;61.70;;;;;;5075361;28;20793;-75
2021/07/23 00:41:38;;;;;;;10.00;7.90;;;20.60;61.60;;;;;;5075625;28;20464;-75
2021/07/23 00:44:05;;;;;;;8.53;7.73;;;20.60;61.80;;;;;;5075510;28;20499;-75
2021/07/23 00:46:33;;;;;;;9.07;8.13;;;20.60;61.90;;;;;;5074406;28;20958;-75
2021/07/23 00:49:00;;;;;;;11.60;8.33;;;20.60;61.90;;;;;;5075204;28;20445;-75
2021/07/23 00:51:27;;;;;;;8.93;8.03;;;20.50;61.80;;;;;;5075389;28;20461;-75
2021/07/23 00:53:55;;;;;;;11.00;8.73;;;20.50;62.00;;;;;;5075470;28;20524;-75
2021/07/23 00:56:22;;;;;;;12.70;8.20;;;20.50;62.10;;;;;;5075354;28;20448;-75
2021/07/23 00:58:49;;;;;;;9.60;8.60;;;20.40;62.00;;;;;;5074939;28;20930;-75
2021/07/23 01:01:15;;;;;;;10.13;9.20;;;20.40;62.20;;;;;;5075210;28;20465;-75
2021/07/23 01:03:43;;;;;;;8.53;7.40;;;20.40;62.30;;;;;;5074854;28;20854;-75
2021/07/23 01:06:11;;;;;;;10.57;7.30;;;20.40;62.50;;;;;;5075169;28;20441;-75
2021/07/23 01:08:37;;;;;;;9.80;8.67;;;20.30;62.40;;;;;;5075116;28;20444;-74
2021/07/23 01:11:04;;;;;;;9.80;8.83;;;20.30;62.60;;;;;;5074988;28;20460;-75
2021/07/23 01:13:31;;;;;;;10.07;9.07;;;20.30;62.70;;;;;;5074990;28;20498;-75
2021/07/23 01:15:58;;;;;;;8.60;7.80;;;20.30;62.70;;;;;;5074939;28;20447;-75
2021/07/23 01:18:24;;;;;;;8.93;7.30;;;20.20;62.70;;;;;;5074938;28;20428;-75
2021/07/23 01:20:53;;;;;;;8.23;7.47;;;20.20;62.70;;;;;;5074783;28;20467;-75
2021/07/23 01:23:28;;;;;;;8.50;7.70;;;20.20;62.70;;;;;;5074444;28;20483;-75
2021/07/23 01:25:55;;;;;;;9.03;8.00;;;20.10;62.90;;;;;;5074536;28;20428;-75
2021/07/23 01:28:22;;;;;;;11.43;7.40;;;20.10;63.10;;;;;;5074704;28;20448;-75
2021/07/23 01:30:49;;;;;;;8.40;7.53;;;20.10;63.10;;;;;;5074573;28;20465;-75
2021/07/23 01:33:16;;;;;;;8.93;7.97;;;20.10;63.10;;;;;;5074586;28;20448;-75
2021/07/23 01:35:43;;;;;;;8.00;7.20;;;20.10;63.90;;;;;;5074542;28;20463;-74
2021/07/23 01:38:10;;;;;;;9.00;8.10;;;20.10;63.10;;;;;;5075037;28;20440;-75
2021/07/23 01:40:38;;;;;;;9.30;8.40;;;20.00;63.00;;;;;;5074360;28;20472;-75
2021/07/23 01:43:05;;;;;;;11.50;8.80;;;20.00;63.00;;;;;;5074406;28;20437;-75
2021/07/23 01:45:32;;;;;;;8.40;7.57;;;19.90;63.00;;;;;;5074295;28;20479;-75
2021/07/23 01:47:58;;;;;;;9.73;8.73;;;19.90;63.10;;;;;;5074334;28;20445;-75
2021/07/23 01:50:25;;;;;;;10.17;8.57;;;19.80;63.20;;;;;;5074223;28;20452;-74
2021/07/23 01:52:52;;;;;;;10.17;8.13;;;19.80;63.40;;;;;;5074257;28;20445;-75
2021/07/23 01:55:18;;;;;;;9.47;8.13;;;19.80;63.50;;;;;;5074221;28;20444;-74
2021/07/23 01:57:46;;;;;;;10.70;8.23;;;19.70;63.50;;;;;;5074104;28;20467;-74
2021/07/23 02:00:14;;;;;;;8.90;8.10;;;19.70;63.40;;;;;;5074006;28;20814;-75
2021/07/23 02:02:41;;;;;;;9.63;8.70;;;19.60;63.50;;;;;;5074090;28;20447;-75
2021/07/23 02:05:08;;;;;;;11.07;8.37;;;19.60;63.70;;;;;;5073867;28;20483;-75
2021/07/23 02:07:36;;;;;;;8.40;7.60;;;19.60;63.60;;;;;;5073974;28;20452;-75
2021/07/23 02:10:03;;;;;;;8.90;8.00;;;19.50;63.50;;;;;;5073912;28;20472;-74
2021/07/23 02:12:30;;;;;;;9.87;8.17;;;19.50;63.50;;;;;;5073767;28;20469;-74
2021/07/23 02:14:58;;;;;;;7.23;6.53;;;19.40;63.50;;;;;;5073884;28;20440;-74
2021/07/23 02:17:25;;;;;;;8.10;7.40;;;19.40;63.40;;;;;;5073560;28;20831;-74
2021/07/23 02:19:52;;;;;;;9.37;8.40;;;19.40;63.60;;;;;;5073738;28;20467;-74
2021/07/23 02:22:19;;;;;;;8.60;7.47;;;19.40;64.10;;;;;;5073304;28;20480;-74
2021/07/23 02:24:46;;;;;;;12.50;8.80;;;19.30;63.90;;;;;;5073329;28;20472;-74
2021/07/23 02:27:13;;;;;;;9.30;7.70;;;19.30;63.80;;;;;;5073723;28;20449;-75
2021/07/23 02:29:40;;;;;;;9.00;8.10;;;19.20;63.90;;;;;;5073658;28;20452;-74
2021/07/23 02:32:08;;;;;;;10.87;9.13;;;19.20;64.10;;;;;;5073519;28;20518;-74
2021/07/23 02:34:35;;;;;;;9.20;8.30;;;19.20;64.30;;;;;;5073614;28;20504;-74
2021/07/23 02:37:02;;;;;;;9.47;8.57;;;19.10;64.30;;;;;;5073275;28;20818;-74
2021/07/23 02:39:28;;;;;;;9.27;8.37;;;19.10;64.60;;;;;;5073226;28;20950;-74
2021/07/23 02:41:55;;;;;;;8.77;7.87;;;19.10;64.60;;;;;;5073447;28;20464;-74
2021/07/23 02:44:22;;;;;;;9.07;8.07;;;19.10;64.50;;;;;;5073253;28;20473;-74
2021/07/23 02:46:48;;;;;;;10.50;8.17;;;19.00;64.20;;;;;;5073243;28;20470;-75
2021/07/23 02:49:17;;;;;;;10.97;8.40;;;19.00;64.10;;;;;;5073458;28;20495;-74
2021/07/23 02:51:43;;;;;;;7.70;7.00;;;18.90;64.10;;;;;;5073454;28;20472;-74
2021/07/23 02:54:10;;;;;;;10.90;8.27;;;18.90;64.20;;;;;;5073095;28;20822;-74
2021/07/23 02:56:37;;;;;;;9.20;8.40;;;18.90;64.40;;;;;;5073389;28;20498;-74
2021/07/23 02:59:03;;;;;;;9.57;7.93;;;18.80;64.20;;;;;;5073381;28;20449;-75
2021/07/23 03:01:30;;;;;;;11.33;8.90;;;18.80;64.20;;;;;;5073243;28;20465;-75
2021/07/23 03:03:57;;;;;;;10.50;7.87;;;18.80;64.40;;;;;;5073225;28;20467;-74
2021/07/23 03:06:25;;;;;;;8.70;7.80;;;18.80;64.40;;;;;;5073265;28;20447;-74
2021/07/23 03:08:52;;;;;;;9.73;8.73;;;18.70;64.30;;;;;;5074756;28;20451;-74
2021/07/23 03:11:19;;;;;;;8.90;8.00;;;18.70;64.30;;;;;;5077327;28;20815;-74
2021/07/23 03:13:45;;;;;;;11.77;8.17;;;18.60;64.30;;;;;;5076956;28;20949;-74
2021/07/23 03:16:14;;;;;;;9.37;7.97;;;18.60;64.40;;;;;;5077223;28;20807;-74
2021/07/23 03:18:41;;;;;;;8.70;7.80;;;18.50;64.50;;;;;;5077179;28;20539;-74
2021/07/23 03:21:08;;;;;;;9.50;7.43;;;18.50;64.60;;;;;;5076914;28;20487;-74
2021/07/23 03:23:36;;;;;;;8.63;7.83;;;18.50;64.70;;;;;;5077144;28;20429;-74
2021/07/23 03:26:06;;;;;;;9.43;8.47;;;18.40;64.70;;;;;;5076969;28;20480;-74
2021/07/23 03:28:33;;;;;;;8.30;7.50;;;18.40;65.00;;;;;;5077019;28;20463;-75
2021/07/23 03:30:59;;;;;;;9.80;8.77;;;18.40;65.30;;;;;;5076897;28;20551;-74
2021/07/23 03:33:26;;;;;;;9.23;8.27;;;18.30;65.20;;;;;;5076888;28;20451;-74
2021/07/23 03:35:53;;;;;;;8.43;7.50;;;18.30;65.30;;;;;;5076555;28;20432;-74
2021/07/23 03:38:20;;;;;;;9.53;8.53;;;18.30;65.40;;;;;;5076830;28;20448;-74
2021/07/23 03:40:48;;;;;;;7.63;6.83;;;18.30;65.60;;;;;;5076621;28;20472;-74
2021/07/23 03:43:14;;;;;;;9.83;8.33;;;18.20;65.60;;;;;;5076390;28;20949;-74
2021/07/23 03:45:41;;;;;;;9.07;8.17;;;18.20;65.90;;;;;;5076297;28;21012;-74
2021/07/23 03:48:08;;;;;;;12.17;9.10;;;18.20;66.20;;;;;;5076321;28;21003;-74
2021/07/23 03:50:35;;;;;;;8.90;8.10;;;18.20;66.50;;;;;;5076230;28;20879;-74
2021/07/23 03:53:01;;;;;;;9.50;8.40;;;18.20;66.90;;;;;;5076530;28;20448;-74
2021/07/23 03:55:28;;;;;;;11.10;9.53;;;18.20;67.20;;;;;;5076468;28;20436;-74
2021/07/23 03:57:56;;;;;;;8.87;7.97;;;18.20;67.30;;;;;;5076123;28;20952;-74
2021/07/23 04:00:23;;;;;;;9.47;8.57;;;18.20;67.60;;;;;;5076009;28;20934;-74
2021/07/23 04:02:50;;;;;;;9.60;8.70;;;18.10;67.40;;;;;;5076347;28;20476;-74
2021/07/23 04:05:17;;;;;;;10.63;9.10;;;18.20;67.50;;;;;;5076222;28;20864;-74
2021/07/23 04:07:43;;;;;;;8.97;8.03;;;18.10;67.50;;;;;;5075938;28;20440;-74
2021/07/23 04:10:11;;;;;;;9.83;8.83;;;18.10;67.60;;;;;;5076232;28;20429;-74
2021/07/23 04:12:38;;;;;;;12.30;9.17;;;18.10;67.60;;;;;;5076210;28;20429;-74
2021/07/23 04:15:09;;;;;;;9.73;8.83;;;18.10;67.70;;;;;;5076086;28;20447;-74
2021/07/23 04:17:36;;;;;;;10.40;9.40;;;18.10;67.70;;;;;;5076139;28;20435;-74
2021/07/23 04:20:03;;;;;;;9.83;8.57;;;18.10;67.60;;;;;;5074803;28;20467;-74
2021/07/23 04:22:30;;;;;;;10.70;8.60;;;18.10;67.40;;;;;;5076018;28;20476;-74
2021/07/23 04:24:57;;;;;;;9.53;8.67;;;18.00;67.30;;;;;;5075861;28;20480;-74
2021/07/23 04:27:24;;;;;;;8.87;7.97;;;18.00;67.60;;;;;;5075899;28;20452;-75
2021/07/23 04:29:50;;;;;;;9.50;8.37;;;18.00;67.70;;;;;;5075719;28;20445;-74
2021/07/23 04:32:18;;;;;;;9.17;8.37;;;18.00;67.60;;;;;;5075733;28;20480;-74
2021/07/23 04:34:45;;;;;;;8.87;8.07;;;18.00;67.60;;;;;;5075756;28;20448;-74
2021/07/23 04:37:12;;;;;;;8.90;7.73;;;18.00;67.80;;;;;;5075753;28;20451;-74
2021/07/23 04:39:39;;;;;;;9.60;8.53;;;18.00;68.20;;;;;;5075362;28;20938;-74
2021/07/23 04:42:06;;;;;;;11.50;9.17;;;18.00;68.50;;;;;;5075563;28;20464;-74
2021/07/23 04:44:33;;;;;;;9.70;8.70;;;18.00;68.60;;;;;;5075545;28;20448;-75
2021/07/23 04:47:01;;;;;;;16.57;9.90;;;18.00;68.80;;;;;;5075544;28;20440;-75
2021/07/23 04:49:29;;;;;;;9.80;8.90;;;18.00;69.10;;;;;;5075556;28;20456;-74
2021/07/23 04:51:56;;;;;;;10.97;9.33;;;18.00;69.40;;;;;;5075377;28;20465;-74
2021/07/23 04:54:22;;;;;;;10.13;9.17;;;18.00;69.70;;;;;;5075383;28;20444;-74
2021/07/23 04:56:52;;;;;;;12.23;8.80;;;18.00;69.90;;;;;;5075383;28;20425;-74
2021/07/23 04:59:19;;;;;;;11.60;10.37;;;18.10;70.40;;;;;;5075324;28;20433;-74
2021/07/23 05:01:45;;;;;;;10.50;9.50;;;18.00;70.60;;;;;;5075185;28;20467;-74
2021/07/23 05:04:12;;;;;;;11.27;9.90;;;18.10;71.20;;;;;;5075196;28;20505;-74
2021/07/23 05:06:41;;;;;;;10.97;9.83;;;18.10;71.60;;;;;;5075046;28;20476;-74
2021/07/23 05:09:07;;;;;;;15.60;9.90;;;18.00;72.00;;;;;;5075103;28;20444;-73
2021/07/23 05:11:35;;;;;;;11.47;10.30;;;18.00;72.50;;;;;;5075776;28;20476;-74
2021/07/23 05:14:02;;;;;;;13.30;10.53;;;18.00;73.20;;;;;;5074986;28;20468;-74
2021/07/23 05:16:29;;;;;;;11.50;10.10;;;18.00;72.50;;;;;;5074615;28;20448;-74
2021/07/23 05:18:55;;;;;;;12.37;10.93;;;18.10;73.50;;;;;;5074626;28;20439;-74
2021/07/23 05:21:22;;;;;;;12.67;10.60;;;18.10;73.80;;;;;;5074537;28;20488;-74
2021/07/23 05:23:50;;;;;;;12.50;11.30;;;18.10;74.10;;;;;;5074468;28;20429;-74
2021/07/23 05:26:17;;;;;;;15.73;10.70;;;18.10;74.60;;;;;;5074372;28;21023;-74
2021/07/23 05:28:44;;;;;;;12.07;10.30;;;18.10;75.20;;;;;;5074707;28;20449;-73
2021/07/23 05:31:11;;;;;;;14.80;10.70;;;18.10;75.50;;;;;;5074253;28;20549;-73
2021/07/23 05:33:38;;;;;;;12.43;11.13;;;18.20;75.70;;;;;;5074634;28;20429;-73
2021/07/23 05:36:05;;;;;;;11.97;10.87;;;18.20;75.80;;;;;;5074574;28;20445;-73
2021/07/23 05:38:32;;;;;;;12.63;10.93;;;18.20;75.60;;;;;;5074508;28;20559;-73
2021/07/23 05:41:08;;;;;;;12.00;10.80;;;18.20;76.00;;;;;;5074350;28;20465;-73
2021/07/23 05:43:35;;;;;;;19.03;11.50;;;18.20;76.40;;;;;;5074410;28;20429;-73
2021/07/23 05:46:04;;;;;;;12.00;10.63;;;18.30;76.50;;;;;;5073949;28;21047;-73
2021/07/23 05:48:31;;;;;;;16.97;10.87;;;18.30;77.00;;;;;;5074042;28;20429;-73
2021/07/23 05:50:57;;;;;;;14.40;10.50;;;18.30;77.20;;;;;;5073893;28;20467;-73
2021/07/23 05:53:24;;;;;;;13.30;11.93;;;18.30;77.20;;;;;;5074214;28;20449;-73
2021/07/23 05:55:51;;;;;;;12.20;9.93;;;18.40;77.30;;;;;;5074160;28;20790;-73
2021/07/23 05:58:19;;;;;;;12.60;10.43;;;18.40;77.20;;;;;;5074133;28;20451;-74
2021/07/23 06:00:46;;;;;;;11.53;10.40;;;18.40;77.10;;;;;;5072777;28;20473;-75
2021/07/23 06:03:13;;;;;;;9.83;8.97;;;18.60;76.60;;;;;;5074013;28;20452;-75
2021/07/23 06:05:40;;;;;;;10.90;9.80;;;18.80;75.60;;;;;;5073625;28;20476;-75
2021/07/23 06:08:07;;;;;;;13.97;8.70;;;19.00;74.80;;;;;;5073632;28;20969;-75
2021/07/23 06:10:33;;;;;;;12.53;10.33;;;19.20;73.70;;;;;;5073852;28;20468;-76
2021/07/23 06:13:00;;;;;;;11.37;10.10;;;19.30;72.80;;;;;;5073896;28;20444;-73
2021/07/23 06:15:28;;;;;;;11.20;10.00;;;19.50;72.90;;;;;;5073545;28;20934;-73
2021/07/23 06:17:55;;;;;;;11.50;10.30;;;19.50;73.20;;;;;;5073887;28;20429;-73
2021/07/23 06:20:22;;;;;;;9.90;8.90;;;19.60;73.50;;;;;;5073351;28;20814;-74
2021/07/23 06:22:49;;;;;;;11.03;10.07;;;19.70;73.70;;;;;;5073413;28;20899;-74
2021/07/23 06:25:15;;;;;;;9.93;9.00;;;19.80;73.60;;;;;;5073632;28;20483;-74
2021/07/23 06:27:42;;;;;;;10.17;9.13;;;19.80;73.40;;;;;;5073700;28;20846;-74
2021/07/23 06:30:10;;;;;;;10.80;9.80;;;19.90;73.40;;;;;;5073655;28;20448;-74
2021/07/23 06:32:38;;;;;;;10.27;9.07;;;20.00;73.50;;;;;;5074119;28;20487;-74
2021/07/23 06:35:06;;;;;;;11.93;10.00;;;20.00;73.10;;;;;;5073578;28;20448;-74
2021/07/23 06:37:32;;;;;;;10.73;9.73;;;20.10;73.50;;;;;;5073568;28;20445;-74
2021/07/23 06:39:59;;;;;;;10.77;9.77;;;20.20;73.50;;;;;;5073508;28;20447;-74
2021/07/23 06:42:26;;;;;;;11.40;10.23;;;20.30;73.00;;;;;;5073310;28;20494;-74
2021/07/23 06:44:53;;;;;;;10.70;9.63;;;20.40;72.30;;;;;;5072999;28;20449;-74
2021/07/23 06:47:20;;;;;;;8.73;8.00;;;20.50;71.70;;;;;;5073387;28;20488;-74
2021/07/23 06:49:48;;;;;;;11.13;9.40;;;20.60;71.20;;;;;;5073160;28;21024;-74
2021/07/23 06:52:15;;;;;;;9.20;8.40;;;20.70;71.30;;;;;;5073360;28;20466;-74
2021/07/23 06:54:42;;;;;;;10.77;9.67;;;20.80;71.30;;;;;;5073422;28;20498;-75
2021/07/23 06:57:09;;;;;;;9.10;8.20;;;21.00;70.60;;;;;;5073351;28;20444;-74
2021/07/23 06:59:36;;;;;;;10.23;9.07;;;21.10;70.30;;;;;;5073434;28;20433;-74
2021/07/23 07:02:03;;;;;;;8.40;7.40;;;21.20;69.10;;;;;;5073290;28;20465;-75
2021/07/23 07:04:31;;;;;;;10.07;9.07;;;21.40;69.70;;;;;;5073289;28;20448;-75
2021/07/23 07:07:00;;;;;;;12.73;9.03;;;21.50;68.90;;;;;;5073259;28;20480;-75
2021/07/23 07:09:27;;;;;;;11.73;9.20;;;21.70;68.20;;;;;;5073254;28;20453;-75
2021/07/23 07:11:57;;;;;;;8.40;7.70;;;21.80;67.50;;;;;;5073149;28;20479;-75
2021/07/23 07:14:25;;;;;;;10.00;7.80;;;21.90;66.80;;;;;;5073224;28;20448;-74
2021/07/23 07:16:52;;;;;;;9.73;8.30;;;22.10;66.10;;;;;;5073178;28;20798;-75
2021/07/23 07:19:19;;;;;;;8.63;7.40;;;22.20;65.90;;;;;;5072890;28;20451;-75
2021/07/23 07:21:48;;;;;;;8.97;8.13;;;22.40;65.80;;;;;;5072876;28;20476;-75
2021/07/23 07:24:17;;;;;;;7.90;7.03;;;22.60;65.00;;;;;;5073157;28;20440;-75
2021/07/23 07:26:44;;;;;;;8.03;6.40;;;22.80;64.10;;;;;;5073043;28;20480;-75
2021/07/23 07:29:11;;;;;;;7.33;6.50;;;23.00;63.40;;;;;;5073117;28;20437;-75
2021/07/23 07:31:38;;;;;;;13.57;7.30;;;23.10;62.90;;;;;;5073177;28;20467;-75
2021/07/23 07:34:04;;;;;;;8.63;7.80;;;23.30;62.50;;;;;;5072735;28;21006;-75
2021/07/23 07:36:31;;;;;;;7.60;6.83;;;23.60;61.20;;;;;;5073033;28;20436;-75
2021/07/23 07:38:58;;;;;;;7.53;6.83;;;23.70;60.60;;;;;;5072977;28;20451;-75
2021/07/23 07:41:27;;;;;;;6.90;6.20;;;23.90;59.60;;;;;;5072961;28;20534;-75
2021/07/23 07:43:55;;;;;;;7.40;6.80;;;24.10;59.00;;;;;;5072967;28;20479;-75
2021/07/23 07:46:21;;;;;;;6.13;5.53;;;24.30;58.50;;;;;;5072737;28;20559;-75
2021/07/23 07:48:49;;;;;;;7.97;7.17;;;24.50;57.90;;;;;;5072560;28;20451;-74
2021/07/23 07:51:15;;;;;;;8.17;7.37;;;24.70;57.40;;;;;;5072808;28;20467;-75
2021/07/23 07:53:42;;;;;;;5.90;5.23;;;24.80;56.90;;;;;;5073355;28;20444;-73
2021/07/23 07:56:10;;;;;;;5.07;4.57;;;25.00;56.80;;;;;;5076276;28;20459;-75
2021/07/23 07:58:38;;;;;;;7.93;5.90;;;25.20;56.10;;;;;;5076468;28;20455;-74
2021/07/23 08:01:06;;;;;;;6.50;5.90;;;25.40;55.50;;;;;;5076337;28;20464;-74
2021/07/23 08:03:33;;;;;;;6.23;4.63;;;25.50;54.80;;;;;;5076426;28;20770;-74
2021/07/23 08:06:03;;;;;;;5.27;4.60;;;25.70;54.70;;;;;;5076285;28;20534;-74
2021/07/23 08:08:30;;;;;;;6.10;5.50;;;25.90;54.30;;;;;;5076362;28;20428;-74
2021/07/23 08:10:57;;;;;;;6.50;5.90;;;26.00;53.80;;;;;;5076150;28;20460;-74
2021/07/23 08:13:26;;;;;;;7.17;5.27;;;26.30;53.40;;;;;;5076179;28;20458;-74
2021/07/23 08:15:55;;;;;;;12.00;5.47;;;26.40;52.90;;;;;;5076074;28;20444;-74
2021/07/23 08:18:22;;;;;;;5.43;4.60;;;26.60;52.50;;;;;;5075740;28;20939;-73
2021/07/23 08:20:51;;;;;;;6.03;4.77;;;26.80;52.20;;;;;;5076015;28;20464;-73
2021/07/23 08:23:17;;;;;;;4.83;4.43;;;27.00;52.10;;;;;;5075534;28;20460;-74
2021/07/23 08:25:44;;;;;;;7.83;6.03;;;27.20;51.40;;;;;;5076004;28;20436;-74
2021/07/23 08:28:11;;;;;;;6.50;5.50;;;27.40;50.60;;;;;;5075980;28;20447;-74
2021/07/23 08:30:38;;;;;;;6.60;4.50;;;27.60;49.70;;;;;;5075741;28;20898;-74
2021/07/23 08:33:06;;;;;;;5.20;4.70;;;27.70;49.40;;;;;;5075860;28;20515;-74
2021/07/23 08:35:33;;;;;;;10.70;4.43;;;27.90;49.20;;;;;;5075778;28;20444;-74
2021/07/23 08:38:00;;;;;;;4.87;4.20;;;28.00;48.80;;;;;;5075734;28;20468;-74
2021/07/23 08:40:26;;;;;;;5.97;4.23;;;28.20;48.50;;;;;;5075663;28;20431;-74
2021/07/23 08:42:53;;;;;;;5.80;5.23;;;28.40;48.20;;;;;;5075648;28;20436;-74
2021/07/23 08:45:21;;;;;;;5.53;4.73;;;28.50;47.80;;;;;;5075757;28;20456;-73
2021/07/23 08:47:48;;;;;;;4.40;4.10;;;28.70;47.10;;;;;;5075503;28;20845;-74
2021/07/23 08:50:16;;;;;;;5.63;5.03;;;28.80;46.50;;;;;;5076002;28;20452;-74
2021/07/23 08:52:45;;;;;;;4.30;3.90;;;29.00;46.10;;;;;;5075480;28;20445;-74
2021/07/23 08:55:13;;;;;;;5.00;4.23;;;29.10;45.50;;;;;;5075101;28;20487;-74
2021/07/23 08:57:41;;;;;;;4.50;4.10;;;29.30;45.10;;;;;;5075507;28;20520;-74
2021/07/23 09:00:10;;;;;;;4.17;3.73;;;29.40;44.70;;;;;;5075400;28;20448;-74
2021/07/23 09:02:57;;;;;;;3.77;3.53;;;29.60;44.60;;;;;;5075247;28;20468;-74
2021/07/23 09:05:27;;;;;;;6.73;5.73;;;29.80;44.30;;;;;;5074977;28;20448;-74
2021/07/23 09:07:54;;;;;;;6.23;5.30;;;29.90;43.30;;;;;;5074610;28;20523;-74
2021/07/23 09:10:23;;;;;;;5.50;5.00;;;30.00;43.00;;;;;;5074806;28;20825;-74
2021/07/23 09:12:51;;;;;;;4.77;4.37;;;30.10;43.30;;;;;;5075224;28;20468;-74
2021/07/23 09:15:21;;;;;;;3.63;3.43;;;30.20;42.40;;;;;;5074723;28;20502;-74
2021/07/23 09:17:48;;;;;;;4.87;4.47;;;30.30;42.70;;;;;;5074725;28;20918;-75
2021/07/23 09:20:15;;;;;;;4.93;4.50;;;30.50;42.60;;;;;;5074487;28;20448;-75
2021/07/23 09:22:47;;;;;;;4.53;4.13;;;30.60;42.60;;;;;;5074819;28;20456;-76
2021/07/23 09:25:15;;;;;;;4.30;4.00;;;30.80;42.10;;;;;;5074778;28;20444;-76
2021/07/23 09:27:42;;;;;;;4.20;3.80;;;31.00;42.00;;;;;;5074649;28;20476;-74
2021/07/23 09:30:12;;;;;;;5.67;4.20;;;31.20;41.90;;;;;;5074703;28;20445;-75
2021/07/23 09:32:39;;;;;;;6.70;6.10;;;31.40;41.60;;;;;;5074634;28;20475;-74
2021/07/23 09:35:10;;;;;;;7.20;6.60;;;31.60;41.00;;;;;;5075145;28;20428;-74
2021/07/23 09:37:54;;;;;;;9.00;5.70;;;31.70;39.00;;;;;;5074593;28;20437;-74
2021/07/23 09:40:21;;;;;;;4.90;4.40;;;31.60;39.50;;;;;;5072488;28;20572;-74
2021/07/23 09:42:56;;;;;;;5.30;4.90;;;31.70;39.70;;;;;;5074186;28;20902;-76
2021/07/23 09:45:28;;;;;;;4.97;4.43;;;31.80;38.70;;;;;;5074154;28;20928;-74
2021/07/23 09:48:08;;;;;;;4.90;4.50;;;31.90;39.10;;;;;;5074262;28;20464;-74
2021/07/23 09:50:39;;;;;;;6.77;5.63;;;32.00;38.90;;;;;;5074265;28;20464;-74
2021/07/23 09:53:09;;;;;;;5.30;4.70;;;32.20;37.50;;;;;;5074300;28;20479;-75
2021/07/23 09:55:36;;;;;;;5.23;4.67;;;32.40;37.60;;;;;;5074314;28;20463;-75
2021/07/23 09:58:06;;;;;;;6.07;4.20;;;32.60;37.80;;;;;;5073872;28;20844;-75
2021/07/23 10:00:37;;;;;;;6.30;4.53;;;32.80;37.50;;;;;;5074076;28;20456;-75
2021/07/23 10:03:07;;;;;;;5.00;4.57;;;33.10;37.40;;;;;;5074128;28;20452;-76
2021/07/23 10:05:37;;;;;;;10.33;5.07;;;33.40;37.20;;;;;;5073736;28;20478;-76
2021/07/23 10:08:08;;;;;;;4.63;3.80;;;33.70;36.30;;;;;;5073974;28;20476;-74
2021/07/23 10:10:39;;;;;;;5.00;4.57;;;34.10;35.50;;;;;;5073937;28;20551;-75
2021/07/23 10:13:07;;;;;;;7.87;6.37;;;34.30;35.10;;;;;;5073943;28;20456;-75
2021/07/23 10:15:36;;;;;;;7.90;5.63;;;34.50;34.20;;;;;;5073913;28;20479;-75
2021/07/23 10:18:05;;;;;;;7.70;6.27;;;34.80;33.90;;;;;;5072995;28;20478;-74
2021/07/23 10:20:32;;;;;;;7.80;7.00;;;34.90;32.60;;;;;;5073509;28;20476;-75
2021/07/23 10:22:59;;;;;;;8.23;7.10;;;35.10;32.50;;;;;;5073385;28;20922;-74
2021/07/23 10:25:31;;;;;;;7.10;5.80;;;35.30;32.00;;;;;;5073792;28;20514;-74
2021/07/23 10:27:58;;;;;;;8.70;7.90;;;35.30;30.30;;;;;;5073752;28;20468;-74
2021/07/23 10:30:33;;;;;;;7.37;4.70;;;35.40;29.90;;;;;;5073740;28;20819;-74
2021/07/23 10:32:59;;;;;;;5.77;5.37;;;35.50;30.00;;;;;;5073690;28;20455;-75
2021/07/23 10:35:34;;;;;;;7.63;5.60;;;35.90;31.00;;;;;;5073711;28;20428;-75
2021/07/23 10:38:04;;;;;;;5.33;4.83;;;36.20;30.00;;;;;;5073368;28;20428;-74
2021/07/23 10:40:41;;;;;;;4.87;4.47;;;36.60;29.70;;;;;;5073265;28;20929;-74
2021/07/23 10:43:34;;;;;;;5.47;4.90;;;37.10;29.40;;;;;;5073597;28;20435;-75
2021/07/23 10:46:02;;;;;;;8.30;5.57;;;37.70;28.90;;;;;;5073504;28;20194;-76
2021/07/23 10:48:48;;;;;;;11.05;7.40;;;38.10;28.00;;;;;;5073106;28;20226;-74
2021/07/23 10:51:46;;;;;;;19.10;8.00;;;38.50;25.70;;;;;;5073447;28;20225;-74
2021/07/23 10:54:13;;;;;;;5.93;4.93;;;38.70;26.10;;;;;;5073471;28;20210;-75
2021/07/23 10:57:15;;;;;;;8.25;6.03;;;39.10;26.60;;;;;;5073508;28;20240;-75
2021/07/23 10:59:53;;;;;;;7.05;3.85;;;39.70;26.50;;;;;;5073005;28;20185;-75
2021/07/23 11:02:44;;;;;;;58.75;21.33;;;40.30;25.20;;;;;;5074447;28;20249;-76
2021/07/23 11:05:16;;;;;;;6.70;4.70;;;40.90;24.80;;;;;;5073467;28;20186;-76
2021/07/23 11:07:44;;;;;;;10.48;6.80;;;41.40;23.50;;;;;;5073380;28;20625;-76
2021/07/23 11:10:13;;;;;;;7.15;5.55;;;41.90;22.80;;;;;;5073361;28;20229;-76
2021/07/23 11:12:45;;;;;;;6.53;4.30;;;42.20;22.90;;;;;;5073203;28;20218;-76
2021/07/23 11:15:12;;;;;;;6.90;6.18;;;42.60;22.60;;;;;;5073328;28;20201;-76
2021/07/23 11:17:50;;;;;;;5.03;4.18;;;43.00;21.50;;;;;;5073296;28;20224;-76
2021/07/23 11:20:23;;;;;;;12.43;5.18;;;43.20;20.90;;;;;;5073096;28;20198;-74
2021/07/23 11:22:51;;;;;;;8.43;4.75;;;43.50;21.40;;;;;;5072704;28;20205;-76
2021/07/23 11:25:18;;;;;;;7.10;4.20;;;43.50;20.70;;;;;;5073060;28;20198;-75
2021/07/23 11:27:50;;;;;;;8.43;4.47;;;43.50;20.70;;;;;;5073045;28;20266;-77
2021/07/23 11:30:20;;;;;;;4.32;3.78;;;43.70;20.50;;;;;;5075491;28;20189;-76
2021/07/23 11:32:54;;;;;;;4.95;4.43;;;43.90;20.90;;;;;;5076999;28;20217;-75
2021/07/23 11:35:22;;;;;;;4.97;4.40;;;44.10;20.50;;;;;;5077682;28;20207;-75
2021/07/23 11:37:49;;;;;;;4.47;4.07;;;44.20;19.50;;;;;;5077520;28;20204;-75
2021/07/23 11:40:17;;;;;;;4.70;3.65;;;44.20;19.90;;;;;;5076876;28;20182;-75
2021/07/23 11:42:50;;;;;;;4.25;3.85;;;44.40;20.20;;;;;;5076796;28;20214;-75
2021/07/23 11:45:17;;;;;;;4.65;4.20;;;44.60;20.10;;;;;;5076823;28;20232;-74
2021/07/23 11:47:46;;;;;;;3.80;3.50;;;44.70;19.30;;;;;;5076645;28;20209;-74
2021/07/23 11:50:14;;;;;;;3.85;3.55;;;44.80;19.40;;;;;;5076666;28;20186;-75
2021/07/23 11:52:41;;;;;;;5.07;4.68;;;44.80;19.20;;;;;;5076703;28;20222;-77
2021/07/23 11:55:09;;;;;;;4.03;3.63;;;44.90;19.00;;;;;;5076693;28;20209;-75
2021/07/23 11:57:39;;;;;;;4.57;3.80;;;44.90;19.20;;;;;;5076719;28;20217;-77
2021/07/23 12:00:20;;;;;;;5.28;4.10;;;45.00;18.80;;;;;;5077718;28;20193;-76
2021/07/23 12:02:50;;;;;;;3.42;3.13;;;45.10;18.80;;;;;;5077237;28;20186;-77
2021/07/23 12:05:17;;;;;;;4.45;4.05;;;45.20;19.30;;;;;;5079159;28;20186;-79
2021/07/23 12:07:46;;;;;;;4.30;3.90;;;45.40;18.90;;;;;;5078611;28;20595;-78
2021/07/23 12:10:14;;;;;;;4.57;4.18;;;45.60;18.70;;;;;;5078423;28;20281;-78
2021/07/23 12:12:41;;;;;;;5.18;3.95;;;45.80;18.40;;;;;;5079989;28;20722;-78
2021/07/23 12:15:11;;;;;;;4.30;3.72;;;46.00;18.40;;;;;;5078944;28;20197;-78
2021/07/23 12:17:43;;;;;;;3.78;3.47;;;46.40;18.10;;;;;;5077778;28;20197;-78
2021/07/23 12:20:11;;;;;;;3.35;3.10;;;46.60;17.90;;;;;;5076645;28;20198;-76
2021/07/23 12:22:38;;;;;;;6.35;3.40;;;46.90;17.40;;;;;;5075709;28;20232;-75
2021/07/23 12:25:15;;;;;;;3.97;3.58;;;47.10;17.10;;;;;;5076079;28;20206;-75
2021/07/23 12:27:42;;;;;;;4.50;3.38;;;47.30;17.00;;;;;;5075793;28;20687;-76
2021/07/23 12:30:12;;;;;;;3.67;3.35;;;47.50;16.80;;;;;;5075976;28;20209;-76
2021/07/23 12:32:39;;;;;;;3.90;3.60;;;47.80;16.70;;;;;;5075872;28;20230;-75
2021/07/23 12:35:07;;;;;;;3.85;3.45;;;47.90;16.70;;;;;;5076175;28;20205;-77
2021/07/23 12:37:33;;;;;;;5.53;3.20;;;48.10;16.50;;;;;;5076140;28;20253;-77
2021/07/23 12:40:02;;;;;;;5.47;3.47;;;48.30;16.00;;;;;;5075592;28;20640;-75
2021/07/23 12:42:30;;;;;;;3.47;3.17;;;48.50;16.20;;;;;;5074661;28;20257;-75
2021/07/23 12:44:57;;;;;;;4.05;3.30;;;48.60;15.70;;;;;;5075824;28;20206;-75
2021/07/23 12:47:27;;;;;;;3.80;3.22;;;48.70;15.80;;;;;;5075686;28;20206;-75